Airfield :
LOGIN :

Register | Disclaimer

   EN    FR    IT 

 










Legend :    VFR   Marginal VFR   IFR   Intensive IFR   Very Intensive IFR
Visi :
Ceiling :
>= 8 km
>= 3000ft
5 to 8 km
1000 to 3000 ft
1500m to 5 km
500 to 1000 ft
800 to 1500m
200 to 500 ft
< 800m
< 200 ft
Symbols :   Thunderstorms  Fog  Heavy snow  Heavy precipitations  Wind > 20 kt
SIGMETs :     Misc.  Thunderstorms  Icing  Turbulence  Mountain Waves  Volcanic Ashes






- Airport Elevation : 250 ft


LERI - Alcantarilla

CURRENT METAR :
  • 211430Z 10006KT 040V170 9999 SCT050 22/07 Q1014 NOSIG

EXPIRED METARs :
  • 211400Z VRB05KT 9999 SCT050 22/08 Q1015 NOSIG
  • 211330Z 10004KT 040V170 9999 SCT050 20/07 Q1015 NOSIG
  • 211300Z 13003KT 050V210 9999 FEW045 22/07 Q1015 NOSIG
  • 211230Z 09004KT 9999 SCT040 20/08 Q1016 NOSIG
  • 211200Z 10006KT 360V170 9999 SCT040 21/07 Q1016 NOSIG
  • 211130Z 07005KT 340V140 9999 SCT040 19/08 Q1016 NOSIG
  • 211100Z 08006KT 360V140 9999 FEW030 19/08 Q1017 NOSIG
  • 211030Z VRB05KT 9999 FEW030 19/08 Q1017 NOSIG
  • 211000Z 05006KT 320V110 9999 FEW030 18/09 Q1017 NOSIG
  • 210900Z 36003KT 320V100 9999 FEW028 SCT040 17/07 Q1018 NOSIG

TAF TAF LERI
Valid from the 21 at 12:00 until the 22 at 12:00 UTC


211100Z 2112/2212 11010KT CAVOK TX23/2115Z TN09/2206Z
BECMG 2119/2121 VRB02KT



MET'MAP, your aeronautical weather chart ! - Copyright ORBIFLY December 2007 - Disclaimer

ORBIFLY MET'MAP TEAM :

Programming & Development : Alexandra Zaïnal
Original concept : Baudouin d'Aumeries
Technical & hardware support : Manuel Goepfert
Assistance : Marc-Olivier Méhu




SOURCES & CREDITS :

   NOAA